Time;durP1;ratioP1;P1;durP2;ratioP2;P2;SDS_P1;SDS_P2;PMS_P1;PMS_P2;Temp;Humidity;BMP_temperature;BMP_pressure;BME280_temperature;BME280_humidity;BME280_pressure;Samples;Min_cycle;Max_cycle;Signal;HPM_P1;HPM_P2
2021/05/07 00:01:23;;;;;;;7.05;5.63;;;4.30;94.00;;;;;;5085937;28;20047;-84
2021/05/07 00:03:49;;;;;;;6.80;5.95;;;4.30;93.90;;;;;;5084689;28;20132;-84
2021/05/07 00:06:16;;;;;;;6.57;5.78;;;4.20;93.80;;;;;;5086645;28;20068;-87
2021/05/07 00:08:42;;;;;;;6.63;5.82;;;4.20;93.90;;;;;;5070114;28;20068;-88
2021/05/07 00:11:14;;;;;;;7.43;6.32;;;4.20;93.90;;;;;;5086593;28;20044;-84
2021/05/07 00:13:40;;;;;;;10.43;9.27;;;4.10;94.10;;;;;;5086345;28;20051;-90
2021/05/07 00:16:05;;;;;;;9.10;8.07;;;4.20;94.00;;;;;;5086391;28;20085;-83
2021/05/07 00:18:33;;;;;;;7.97;6.40;;;4.20;94.10;;;;;;5084798;28;20047;-86
2021/05/07 00:20:59;;;;;;;8.23;6.53;;;4.20;94.10;;;;;;5085264;28;20051;-84
2021/05/07 00:23:25;;;;;;;8.13;7.32;;;4.20;94.20;;;;;;5078002;28;20131;-84
2021/05/07 00:25:52;;;;;;;10.13;7.38;;;4.30;94.00;;;;;;5083293;28;20056;-84
2021/05/07 00:28:19;;;;;;;8.02;6.55;;;4.30;93.80;;;;;;5100062;28;20160;-84
2021/05/07 00:30:46;;;;;;;6.80;6.13;;;4.30;93.80;;;;;;5085081;28;20048;-84
2021/05/07 00:33:12;;;;;;;6.68;5.97;;;4.30;93.80;;;;;;5084785;28;20047;-84
2021/05/07 00:35:38;;;;;;;6.97;6.28;;;4.30;93.90;;;;;;5083301;28;20047;-84
2021/05/07 00:38:05;;;;;;;6.90;5.80;;;4.30;93.90;;;;;;5085769;28;20060;-82
2021/05/07 00:40:32;;;;;;;7.00;5.68;;;4.30;93.90;;;;;;5084679;28;20139;-82
2021/05/07 00:42:58;;;;;;;8.65;7.03;;;4.20;93.80;;;;;;5067535;28;20544;-84
2021/05/07 00:45:24;;;;;;;6.90;6.20;;;4.20;94.00;;;;;;5084410;28;20119;-84
2021/05/07 00:48:06;;;;;;;7.03;5.93;;;4.20;94.20;;;;;;5063407;28;20048;-83
2021/05/07 00:50:36;;;;;;;6.82;6.00;;;4.20;94.30;;;;;;5060819;28;20170;-82
2021/05/07 00:53:03;;;;;;;8.27;6.10;;;4.20;94.40;;;;;;5058506;28;20053;-82
2021/05/07 00:55:31;;;;;;;7.85;6.05;;;4.20;94.80;;;;;;5077117;28;20048;-82
2021/05/07 00:57:57;;;;;;;7.63;6.82;;;4.20;94.60;;;;;;5085821;28;20040;-84
2021/05/07 01:00:25;;;;;;;11.02;7.22;;;4.20;94.70;;;;;;5090259;28;20052;-83
2021/05/07 01:02:51;;;;;;;9.30;8.30;;;4.10;94.70;;;;;;5088424;28;20060;-83
2021/05/07 01:05:18;;;;;;;8.50;7.55;;;4.10;94.80;;;;;;5089460;28;20059;-84
2021/05/07 01:07:44;;;;;;;8.23;6.72;;;4.00;94.80;;;;;;5089223;28;20052;-87
2021/05/07 01:10:12;;;;;;;8.38;6.65;;;4.00;94.90;;;;;;5092337;28;20054;-87
2021/05/07 01:12:40;;;;;;;9.27;6.85;;;4.00;95.00;;;;;;5086083;28;20040;-85
2021/05/07 01:15:15;;;;;;;8.63;6.90;;;3.90;95.00;;;;;;5090598;28;20040;-83
2021/05/07 01:17:43;;;;;;;10.00;6.75;;;3.80;95.00;;;;;;5087496;28;20123;-84
2021/05/07 01:20:17;;;;;;;7.90;6.32;;;3.80;95.00;;;;;;5089512;28;20502;-83
2021/05/07 01:22:47;;;;;;;6.53;5.57;;;3.70;95.00;;;;;;5090061;28;20043;-88
2021/05/07 01:25:18;;;;;;;8.55;6.55;;;3.70;95.00;;;;;;5088886;28;20488;-83
2021/05/07 01:27:46;;;;;;;7.57;6.10;;;3.70;95.00;;;;;;5090832;28;20075;-88
2021/05/07 01:30:24;;;;;;;9.38;7.03;;;3.80;95.10;;;;;;5086102;28;20139;-84
2021/05/07 01:32:50;;;;;;;7.35;6.05;;;3.70;95.10;;;;;;5088737;28;20085;-85
2021/05/07 01:35:28;;;;;;;7.13;6.10;;;3.70;95.00;;;;;;5087038;28;20048;-84
2021/05/07 01:37:59;;;;;;;7.85;5.65;;;3.80;95.00;;;;;;5087340;28;20058;-83
2021/05/07 01:40:28;;;;;;;6.82;6.13;;;3.80;95.10;;;;;;5089308;28;20071;-84
2021/05/07 01:42:54;;;;;;;7.10;6.40;;;3.80;95.00;;;;;;5089457;28;20055;-83
2021/05/07 01:45:23;;;;;;;7.88;5.82;;;3.80;95.00;;;;;;5083510;28;20048;-83
2021/05/07 01:47:49;;;;;;;6.82;5.47;;;3.80;95.00;;;;;;5086778;28;20787;-89
2021/05/07 01:50:18;;;;;;;7.07;5.50;;;3.80;95.00;;;;;;5089465;28;20063;-83
2021/05/07 01:52:44;;;;;;;6.00;5.00;;;3.80;95.00;;;;;;5084899;28;20725;-83
2021/05/07 01:55:16;;;;;;;8.90;6.05;;;3.80;95.00;;;;;;5087736;28;20058;-89
2021/05/07 01:57:42;;;;;;;7.25;5.15;;;3.70;95.00;;;;;;5080390;28;20083;-84
2021/05/07 02:00:11;;;;;;;6.63;4.88;;;3.70;95.00;;;;;;5086851;28;20052;-83
2021/05/07 02:02:37;;;;;;;5.75;4.60;;;3.70;95.10;;;;;;5086636;28;20046;-84
2021/05/07 02:05:05;;;;;;;5.88;4.28;;;3.70;95.10;;;;;;5081459;28;20058;-84
2021/05/07 02:07:31;;;;;;;4.80;3.30;;;3.70;95.10;;;;;;5079794;28;20040;-82
2021/05/07 02:09:57;;;;;;;7.05;4.15;;;3.70;95.20;;;;;;5064768;28;20504;-84
2021/05/07 02:12:23;;;;;;;7.47;4.00;;;3.60;95.10;;;;;;5083466;28;20082;-84
2021/05/07 02:14:49;;;;;;;5.60;4.32;;;3.70;95.10;;;;;;5067698;28;20051;-86
2021/05/07 02:17:16;;;;;;;5.45;4.40;;;3.60;95.00;;;;;;5066604;28;20044;-84
2021/05/07 02:19:42;;;;;;;4.90;3.90;;;3.60;95.00;;;;;;5064225;28;20044;-83
2021/05/07 02:22:08;;;;;;;6.35;4.70;;;3.50;95.00;;;;;;5063522;28;20044;-84
2021/05/07 02:24:33;;;;;;;6.75;4.65;;;3.50;95.00;;;;;;5058815;28;20120;-84
2021/05/07 02:26:59;;;;;;;13.15;4.18;;;3.40;95.00;;;;;;5061757;28;20048;-82
2021/05/07 02:29:25;;;;;;;9.45;4.65;;;3.40;95.00;;;;;;5064457;28;20106;-83
2021/05/07 02:31:51;;;;;;;8.13;4.60;;;3.30;95.00;;;;;;5060365;28;20040;-89
2021/05/07 02:34:17;;;;;;;5.47;3.45;;;3.30;95.10;;;;;;5060848;28;20040;-83
2021/05/07 02:36:43;;;;;;;5.15;3.40;;;3.30;95.10;;;;;;5060700;28;20060;-84
2021/05/07 02:39:09;;;;;;;4.10;3.15;;;3.30;95.00;;;;;;5060742;28;20040;-84
2021/05/07 02:41:36;;;;;;;5.53;3.45;;;3.40;95.10;;;;;;5061857;28;20068;-83
2021/05/07 02:44:05;;;;;;;4.93;3.47;;;3.40;95.10;;;;;;5059388;28;20045;-84
2021/05/07 02:46:36;;;;;;;4.15;3.28;;;3.40;95.10;;;;;;5057464;28;20328;-84
2021/05/07 02:49:05;;;;;;;5.22;3.78;;;3.40;95.10;;;;;;5072769;28;20049;-83
2021/05/07 02:51:33;;;;;;;3.85;3.13;;;3.50;95.10;;;;;;5062088;28;20149;-84
2021/05/07 02:53:59;;;;;;;3.78;2.90;;;3.50;95.10;;;;;;5081997;28;20404;-81
2021/05/07 02:56:25;;;;;;;3.40;2.85;;;3.50;95.10;;;;;;5078190;28;20039;-84
2021/05/07 02:58:51;;;;;;;3.88;3.40;;;3.50;95.00;;;;;;5083361;28;20048;-87
2021/05/07 03:01:17;;;;;;;4.35;3.13;;;3.40;95.00;;;;;;5085536;28;20126;-84
2021/05/07 03:03:43;;;;;;;4.57;3.20;;;3.40;95.00;;;;;;5085117;28;20048;-85
2021/05/07 03:06:09;;;;;;;4.55;2.85;;;3.40;95.00;;;;;;5081256;28;20347;-84
2021/05/07 03:08:35;;;;;;;3.28;2.80;;;3.40;95.10;;;;;;5086365;28;20051;-83
2021/05/07 03:11:01;;;;;;;3.55;3.17;;;3.40;95.10;;;;;;5087608;28;20044;-85
2021/05/07 03:13:27;;;;;;;3.42;2.92;;;3.40;95.10;;;;;;5087995;28;20075;-84
2021/05/07 03:15:53;;;;;;;4.13;3.10;;;3.40;95.20;;;;;;5103288;28;20048;-87
2021/05/07 03:18:20;;;;;;;5.00;3.08;;;3.40;95.30;;;;;;5086735;28;20070;-84
2021/05/07 03:20:47;;;;;;;5.28;3.20;;;3.40;95.30;;;;;;5102395;28;20054;-83
2021/05/07 03:23:14;;;;;;;4.10;3.00;;;3.40;95.30;;;;;;5085007;28;20256;-83
2021/05/07 03:25:40;;;;;;;4.03;3.22;;;3.30;95.30;;;;;;5102292;28;20051;-86
2021/05/07 03:28:06;;;;;;;3.13;2.80;;;3.40;95.30;;;;;;5083486;28;20036;-85
2021/05/07 03:30:33;;;;;;;3.67;2.90;;;3.30;95.30;;;;;;5102988;27;20070;-83
2021/05/07 03:33:03;;;;;;;3.92;2.90;;;3.30;95.30;;;;;;5087253;28;20047;-80
2021/05/07 03:35:31;;;;;;;5.28;2.50;;;3.40;95.40;;;;;;5085166;28;20415;-83
2021/05/07 03:38:01;;;;;;;1.63;1.17;;;3.50;95.70;;;;;;5081317;28;20044;-82
2021/05/07 03:40:27;;;;;;;1.17;1.00;;;3.70;94.80;;;;;;5087535;28;20075;-83
2021/05/07 03:42:53;;;;;;;2.05;1.50;;;3.70;93.90;;;;;;5086421;28;20086;-86
2021/05/07 03:45:20;;;;;;;1.30;1.20;;;3.50;94.30;;;;;;5081322;28;20056;-84
2021/05/07 03:47:46;;;;;;;1.27;1.17;;;3.40;94.70;;;;;;5087553;28;20058;-85
2021/05/07 03:50:12;;;;;;;1.95;1.30;;;3.40;94.40;;;;;;5079723;28;20597;-84
2021/05/07 03:52:40;;;;;;;1.33;1.10;;;3.30;94.40;;;;;;5077542;28;20476;-84
2021/05/07 03:55:08;;;;;;;1.83;1.63;;;3.20;94.60;;;;;;5084047;28;20040;-82
2021/05/07 03:57:34;;;;;;;2.53;1.70;;;3.10;94.80;;;;;;5084288;28;20123;-85
2021/05/07 03:59:59;;;;;;;3.70;1.50;;;3.00;94.90;;;;;;5072767;28;20120;-82
2021/05/07 04:02:25;;;;;;;3.60;1.67;;;3.00;95.10;;;;;;5086053;28;20446;-85
2021/05/07 04:04:52;;;;;;;1.88;1.50;;;2.90;95.20;;;;;;5098563;28;20094;-86
2021/05/07 04:07:18;;;;;;;1.95;1.63;;;2.90;95.40;;;;;;5080780;28;20068;-85
2021/05/07 04:14:45;;;;;;;2.35;1.73;;;2.80;95.60;;;;;;5081640;28;20089;-85
2021/05/07 04:17:11;;;;;;;1.80;1.52;;;2.90;95.70;;;;;;5085250;28;20044;-88
2021/05/07 04:19:37;;;;;;;1.50;1.40;;;2.90;95.70;;;;;;5086575;28;20054;-84
2021/05/07 04:22:08;;;;;;;2.45;1.80;;;2.90;95.70;;;;;;5084883;28;20066;-85
2021/05/07 04:24:34;;;;;;;3.45;2.33;;;2.90;95.70;;;;;;5083845;28;20048;-86
2021/05/07 04:27:00;;;;;;;2.67;2.10;;;2.90;95.60;;;;;;5086646;28;20391;-88
2021/05/07 04:29:26;;;;;;;2.28;1.83;;;2.90;95.70;;;;;;5084158;28;20048;-85
2021/05/07 04:31:52;;;;;;;3.65;1.90;;;2.90;95.70;;;;;;5085292;28;20085;-85
2021/05/07 04:34:18;;;;;;;3.75;1.98;;;2.90;95.60;;;;;;5090664;28;20044;-85
2021/05/07 04:36:44;;;;;;;3.13;2.28;;;2.80;95.60;;;;;;5103305;28;20510;-85
2021/05/07 04:39:09;;;;;;;2.38;2.10;;;2.90;95.60;;;;;;5088974;28;20067;-85
2021/05/07 04:41:35;;;;;;;2.97;2.28;;;2.90;95.70;;;;;;5088824;28;20040;-85
2021/05/07 04:44:02;;;;;;;7.43;2.17;;;2.80;95.60;;;;;;5089981;28;20040;-85
2021/05/07 04:46:28;;;;;;;2.97;2.30;;;2.80;95.70;;;;;;5088975;28;20495;-85
2021/05/07 04:48:54;;;;;;;3.28;2.05;;;2.80;95.70;;;;;;5084513;28;20864;-85
2021/05/07 04:51:21;;;;;;;3.20;2.03;;;2.80;95.80;;;;;;5068984;28;20053;-87
2021/05/07 04:53:47;;;;;;;3.83;1.98;;;2.80;95.60;;;;;;5078194;28;20055;-85
2021/05/07 04:56:12;;;;;;;3.15;2.00;;;2.80;95.60;;;;;;5089996;28;20055;-85
2021/05/07 04:58:38;;;;;;;2.40;2.00;;;2.80;95.60;;;;;;5087121;28;20059;-85
2021/05/07 05:01:04;;;;;;;2.88;1.90;;;2.80;95.50;;;;;;5086750;28;20048;-85
2021/05/07 05:03:30;;;;;;;2.10;1.75;;;2.80;95.60;;;;;;5088831;28;20044;-84
2021/05/07 05:05:55;;;;;;;2.25;1.80;;;2.80;95.20;;;;;;5089965;28;20076;-85
2021/05/07 05:08:25;;;;;;;3.42;2.03;;;2.80;95.00;;;;;;5087564;28;20550;-85
2021/05/07 05:10:58;;;;;;;2.90;2.17;;;2.80;95.00;;;;;;5090594;28;20054;-85
2021/05/07 05:13:25;;;;;;;2.75;2.42;;;2.80;95.00;;;;;;5088230;28;20059;-84
2021/05/07 05:15:51;;;;;;;3.85;3.25;;;2.90;95.00;;;;;;5073607;28;20060;-85
2021/05/07 05:18:28;;;;;;;3.58;2.72;;;2.90;94.90;;;;;;5074966;28;20454;-86
2021/05/07 05:20:57;;;;;;;4.35;3.33;;;3.00;94.90;;;;;;5089918;28;20063;-84
2021/05/07 05:23:23;;;;;;;3.50;3.00;;;3.10;95.10;;;;;;5087434;28;20163;-86
2021/05/07 05:25:49;;;;;;;3.95;2.70;;;3.20;94.80;;;;;;5087592;28;20101;-86
2021/05/07 05:28:15;;;;;;;3.97;2.65;;;3.40;94.80;;;;;;5087419;28;20048;-86
2021/05/07 05:30:41;;;;;;;3.17;2.72;;;3.50;94.70;;;;;;5087248;28;20048;-86
2021/05/07 05:33:07;;;;;;;5.13;2.70;;;3.60;94.70;;;;;;5069336;28;20055;-86
2021/05/07 05:35:33;;;;;;;5.05;2.92;;;3.80;94.80;;;;;;5104565;28;20040;-87
2021/05/07 05:37:59;;;;;;;5.60;2.90;;;3.80;94.90;;;;;;5089877;28;20051;-84
2021/05/07 05:40:25;;;;;;;3.75;3.03;;;3.90;94.90;;;;;;5087807;28;20056;-86
2021/05/07 05:42:51;;;;;;;3.30;2.67;;;3.90;94.90;;;;;;5090123;28;20060;-85
2021/05/07 05:45:16;;;;;;;3.70;2.58;;;4.00;94.90;;;;;;5085770;28;20058;-85
2021/05/07 05:47:42;;;;;;;5.50;3.00;;;4.10;94.90;;;;;;5079018;28;20048;-86
2021/05/07 05:50:09;;;;;;;4.65;3.33;;;4.20;94.90;;;;;;5083580;28;20052;-85
2021/05/07 05:52:35;;;;;;;4.80;3.20;;;4.30;95.00;;;;;;5084959;28;20399;-86
2021/05/07 05:55:02;;;;;;;4.85;2.90;;;4.30;95.00;;;;;;5080109;28;20059;-87
2021/05/07 05:57:28;;;;;;;5.13;3.30;;;4.40;95.10;;;;;;5081267;28;20097;-82
2021/05/07 05:59:54;;;;;;;4.90;2.97;;;4.40;95.20;;;;;;5087661;28;20048;-84
2021/05/07 06:02:20;;;;;;;5.30;2.95;;;4.40;95.10;;;;;;5081932;28;20519;-84
2021/05/07 06:04:46;;;;;;;3.70;2.85;;;4.40;95.00;;;;;;5089544;28;20068;-85
2021/05/07 06:07:12;;;;;;;3.60;2.97;;;4.40;95.00;;;;;;5087499;28;20048;-83
2021/05/07 06:09:38;;;;;;;3.70;3.38;;;4.50;95.10;;;;;;5085710;28;20059;-84
2021/05/07 06:12:07;;;;;;;5.50;3.78;;;4.50;95.00;;;;;;5083194;28;20048;-88
2021/05/07 06:14:34;;;;;;;4.70;3.20;;;4.50;95.00;;;;;;5088760;28;20048;-83
2021/05/07 06:17:00;;;;;;;6.32;3.47;;;4.50;94.90;;;;;;5064178;28;20139;-82
2021/05/07 06:19:27;;;;;;;3.92;3.47;;;4.40;94.80;;;;;;5054891;28;20519;-84
2021/05/07 06:22:01;;;;;;;4.05;3.65;;;4.40;94.70;;;;;;5097866;28;20056;-83
2021/05/07 06:24:26;;;;;;;3.78;3.25;;;4.40;94.50;;;;;;5079938;28;20110;-84
2021/05/07 06:26:52;;;;;;;4.78;3.17;;;4.40;94.50;;;;;;5058034;28;20040;-84
2021/05/07 06:29:18;;;;;;;4.65;3.28;;;4.50;94.60;;;;;;5063442;28;20404;-86
2021/05/07 06:31:46;;;;;;;4.25;3.65;;;4.50;94.70;;;;;;5075897;28;20052;-85
2021/05/07 06:34:12;;;;;;;5.10;4.10;;;4.60;94.70;;;;;;5066234;28;20048;-86
2021/05/07 06:36:38;;;;;;;6.22;4.68;;;4.70;94.70;;;;;;5101463;28;20399;-89
2021/05/07 06:39:05;;;;;;;7.63;4.85;;;4.80;94.70;;;;;;5086482;28;20064;-91
2021/05/07 06:41:31;;;;;;;8.73;5.20;;;4.90;94.80;;;;;;5103737;28;20052;-88
2021/05/07 06:43:56;;;;;;;5.82;4.03;;;5.10;95.00;;;;;;5080929;28;20444;-89
2021/05/07 06:46:22;;;;;;;8.05;4.63;;;5.30;95.10;;;;;;5085174;28;20044;-88
2021/05/07 06:48:49;;;;;;;5.53;4.10;;;5.40;94.70;;;;;;5088757;28;20044;-88
2021/05/07 06:51:15;;;;;;;5.35;4.40;;;5.50;94.60;;;;;;5086585;28;20086;-89
2021/05/07 06:53:42;;;;;;;7.45;5.03;;;5.60;94.30;;;;;;5085317;28;20068;-89
2021/05/07 06:56:09;;;;;;;5.55;4.03;;;5.70;94.10;;;;;;5083711;28;20040;-91
2021/05/07 06:58:36;;;;;;;5.38;4.35;;;5.90;94.00;;;;;;5085644;28;20052;-88
2021/05/07 07:01:02;;;;;;;6.72;4.63;;;6.10;93.20;;;;;;5090623;28;20055;-88
2021/05/07 07:03:28;;;;;;;5.13;4.40;;;6.20;93.10;;;;;;5069965;28;20048;-89
2021/05/07 07:05:54;;;;;;;5.93;4.50;;;6.30;93.30;;;;;;5074405;28;20056;-90
2021/05/07 07:08:22;;;;;;;7.28;4.72;;;6.30;93.10;;;;;;5086146;28;20143;-87
2021/05/07 07:10:48;;;;;;;5.25;4.43;;;6.50;93.00;;;;;;5071197;28;20155;-87
2021/05/07 07:13:14;;;;;;;6.15;4.22;;;6.50;92.80;;;;;;5086609;28;20080;-86
2021/05/07 07:15:39;;;;;;;5.70;4.53;;;6.70;92.30;;;;;;5086568;28;20083;-86
2021/05/07 07:18:05;;;;;;;6.10;4.90;;;6.70;92.30;;;;;;5072042;28;20391;-88
2021/05/07 07:20:33;;;;;;;5.45;4.55;;;6.80;92.20;;;;;;5066443;27;20097;-87
2021/05/07 07:23:00;;;;;;;4.93;4.43;;;7.00;92.00;;;;;;5088690;28;20040;-86
2021/05/07 07:25:29;;;;;;;5.03;4.07;;;7.10;92.10;;;;;;5059059;28;20139;-85
2021/05/07 07:27:54;;;;;;;4.72;4.22;;;7.30;91.70;;;;;;5079240;28;20173;-89
2021/05/07 07:30:20;;;;;;;5.50;4.50;;;7.40;91.00;;;;;;5086297;28;20051;-87
2021/05/07 07:32:48;;;;;;;4.65;3.70;;;7.60;89.00;;;;;;5074596;28;20044;-89
2021/05/07 07:35:16;;;;;;;6.05;4.13;;;7.70;87.60;;;;;;5005573;28;20393;-90
2021/05/07 07:37:42;;;;;;;5.60;3.90;;;7.90;86.30;;;;;;5019494;28;20048;-88
2021/05/07 07:40:11;;;;;;;4.82;3.90;;;8.00;87.30;;;;;;5043311;28;20618;-90
2021/05/07 07:42:36;;;;;;;5.68;2.97;;;8.20;85.30;;;;;;5079639;28;20055;-83
2021/05/07 07:45:03;;;;;;;3.10;1.98;;;8.30;84.10;;;;;;5086612;28;20189;-82
2021/05/07 07:47:29;;;;;;;4.13;2.20;;;8.30;75.30;;;;;;5080901;28;20594;-83
2021/05/07 07:49:54;;;;;;;2.70;2.20;;;8.10;73.20;;;;;;5077560;28;20121;-83
2021/05/07 07:52:20;;;;;;;3.47;1.60;;;8.00;76.10;;;;;;5086227;28;20139;-84
2021/05/07 07:54:46;;;;;;;2.20;1.63;;;8.10;73.20;;;;;;5077973;28;20496;-82
2021/05/07 07:57:12;;;;;;;2.50;1.80;;;8.30;71.30;;;;;;5075984;28;20048;-87
2021/05/07 07:59:38;;;;;;;1.90;1.60;;;8.50;71.90;;;;;;5089658;28;20571;-85
2021/05/07 08:02:03;;;;;;;3.05;1.63;;;8.60;70.30;;;;;;5087921;28;20058;-84
2021/05/07 08:04:29;;;;;;;3.55;1.60;;;8.80;69.90;;;;;;5083206;27;20578;-82
2021/05/07 08:06:55;;;;;;;4.68;1.60;;;8.90;67.70;;;;;;5088821;28;20055;-84
2021/05/07 08:09:21;;;;;;;1.60;1.50;;;9.00;68.30;;;;;;5069824;28;20053;-85
2021/05/07 08:11:46;;;;;;;2.47;1.77;;;9.00;65.70;;;;;;5073912;28;20039;-84
2021/05/07 08:14:12;;;;;;;2.50;1.20;;;9.00;67.90;;;;;;5086537;28;20048;-90
2021/05/07 08:16:38;;;;;;;1.10;1.00;;;9.20;64.70;;;;;;5088096;28;20089;-84
2021/05/07 08:19:04;;;;;;;2.95;1.60;;;9.20;59.90;;;;;;5083708;28;20032;-84
2021/05/07 08:21:30;;;;;;;2.75;1.80;;;9.00;64.10;;;;;;5087459;28;20594;-83
2021/05/07 08:23:56;;;;;;;1.58;1.42;;;9.00;64.60;;;;;;5085695;28;20131;-83
2021/05/07 08:26:22;;;;;;;3.08;1.60;;;9.10;65.20;;;;;;5084831;28;20072;-85
2021/05/07 08:28:48;;;;;;;1.73;1.13;;;9.30;61.90;;;;;;5092081;28;20114;-86
2021/05/07 08:31:14;;;;;;;1.42;1.30;;;9.50;61.40;;;;;;5086887;28;20046;-90
2021/05/07 08:33:40;;;;;;;3.65;1.52;;;9.70;64.50;;;;;;5084612;28;20689;-85
2021/05/07 08:36:06;;;;;;;2.92;1.40;;;9.70;64.30;;;;;;5076316;28;20051;-83
2021/05/07 08:38:32;;;;;;;2.03;1.25;;;9.70;62.90;;;;;;5086436;27;20289;-84
2021/05/07 08:41:04;;;;;;;1.75;1.38;;;9.80;64.90;;;;;;5087861;28;20066;-85
2021/05/07 08:43:31;;;;;;;2.13;1.30;;;10.00;62.80;;;;;;5083715;28;20044;-83
2021/05/07 08:46:02;;;;;;;3.55;1.20;;;10.10;60.40;;;;;;5088127;28;20040;-84
2021/05/07 08:48:29;;;;;;;2.05;1.60;;;10.10;57.90;;;;;;5083609;28;20070;-84
2021/05/07 08:50:55;;;;;;;2.80;1.70;;;10.00;60.90;;;;;;5087807;28;20056;-84
2021/05/07 08:53:21;;;;;;;2.53;1.40;;;10.00;61.70;;;;;;5085584;27;20071;-84
2021/05/07 08:55:47;;;;;;;4.68;1.50;;;10.10;63.00;;;;;;5086446;28;20072;-83
2021/05/07 08:58:15;;;;;;;3.13;1.45;;;10.20;60.50;;;;;;5085975;28;20048;-84
2021/05/07 09:00:41;;;;;;;2.85;1.65;;;10.30;60.50;;;;;;5103877;28;20072;-83
2021/05/07 09:03:14;;;;;;;5.25;2.53;;;10.30;62.60;;;;;;5088325;28;20079;-84
2021/05/07 09:05:40;;;;;;;3.15;1.60;;;10.40;62.80;;;;;;5088217;28;20089;-85
2021/05/07 09:08:07;;;;;;;1.52;1.40;;;10.30;63.30;;;;;;5070547;28;20052;-84
2021/05/07 09:10:34;;;;;;;1.52;1.35;;;10.20;61.40;;;;;;5083990;28;20052;-85
2021/05/07 09:13:00;;;;;;;3.00;1.90;;;9.80;63.00;;;;;;5103804;28;20063;-83
2021/05/07 09:15:44;;;;;;;1.95;1.63;;;9.50;67.00;;;;;;5088967;28;20048;-84
2021/05/07 09:18:14;;;;;;;5.30;1.88;;;9.70;66.60;;;;;;5054228;28;20510;-85
2021/05/07 09:20:48;;;;;;;1.65;1.42;;;9.90;66.60;;;;;;5066147;28;20151;-82
2021/05/07 09:23:16;;;;;;;1.50;1.33;;;10.20;65.00;;;;;;5103356;28;20751;-82
2021/05/07 09:25:52;;;;;;;3.35;1.50;;;10.40;63.70;;;;;;5081612;28;20086;-83
2021/05/07 09:28:18;;;;;;;2.17;1.40;;;10.40;65.90;;;;;;5087503;28;20039;-87
2021/05/07 09:30:45;;;;;;;2.35;1.33;;;10.20;61.90;;;;;;5090611;28;20050;-84
2021/05/07 09:33:16;;;;;;;2.40;1.27;;;9.90;62.50;;;;;;5090419;28;20056;-84
2021/05/07 09:35:43;;;;;;;1.45;1.23;;;9.80;61.90;;;;;;5085368;28;20055;-84
2021/05/07 09:38:12;;;;;;;2.03;1.45;;;9.90;63.30;;;;;;5089253;28;20044;-86
2021/05/07 09:40:40;;;;;;;2.50;1.40;;;10.20;63.20;;;;;;5106928;28;20044;-83
2021/05/07 09:43:18;;;;;;;2.70;1.30;;;10.50;63.50;;;;;;5103616;28;20046;-82
2021/05/07 09:45:48;;;;;;;2.45;1.05;;;10.80;63.70;;;;;;5078324;28;20047;-83
2021/05/07 09:48:25;;;;;;;1.42;1.00;;;10.70;54.70;;;;;;5051781;28;20075;-84
2021/05/07 09:51:01;;;;;;;2.22;1.48;;;10.50;55.30;;;;;;5068781;28;20143;-85
2021/05/07 09:53:31;;;;;;;1.65;1.33;;;10.60;60.50;;;;;;5078214;28;20513;-83
2021/05/07 09:56:01;;;;;;;1.98;1.40;;;10.70;59.40;;;;;;5074997;28;20052;-83
2021/05/07 09:58:28;;;;;;;2.33;1.40;;;10.60;62.20;;;;;;5084435;28;20139;-85
2021/05/07 10:00:58;;;;;;;2.00;1.40;;;10.60;61.80;;;;;;5088619;28;20052;-84
2021/05/07 10:03:24;;;;;;;2.63;1.45;;;10.60;60.00;;;;;;5078478;28;20051;-85
2021/05/07 10:05:51;;;;;;;2.45;1.50;;;10.70;60.50;;;;;;5074127;28;20056;-84
2021/05/07 10:08:17;;;;;;;1.42;0.85;;;10.80;64.50;;;;;;5078769;28;20057;-85
2021/05/07 10:10:45;;;;;;;1.65;0.98;;;10.90;57.90;;;;;;5066385;28;20043;-85
2021/05/07 10:13:25;;;;;;;2.60;1.42;;;10.60;59.60;;;;;;5061423;28;20052;-85
2021/05/07 10:16:01;;;;;;;1.90;1.20;;;10.20;61.80;;;;;;5095265;27;20126;-89
2021/05/07 10:18:27;;;;;;;1.83;1.48;;;10.40;62.50;;;;;;5098184;28;20047;-88
2021/05/07 10:21:13;;;;;;;1.80;1.25;;;10.70;63.40;;;;;;5086912;28;20056;-87
2021/05/07 10:23:51;;;;;;;2.58;1.30;;;10.80;58.90;;;;;;5059884;28;20055;-86
2021/05/07 10:26:17;;;;;;;1.85;1.10;;;10.50;62.80;;;;;;5074380;28;20045;-87
2021/05/07 10:28:44;;;;;;;1.83;1.42;;;10.50;64.90;;;;;;5101404;28;20037;-87
2021/05/07 10:31:12;;;;;;;3.05;1.38;;;10.40;64.00;;;;;;5086499;28;20397;-86
2021/05/07 10:33:38;;;;;;;2.00;1.30;;;10.50;63.30;;;;;;5078163;28;20836;-86
2021/05/07 10:36:06;;;;;;;2.00;1.33;;;10.70;62.20;;;;;;5081780;28;20044;-86
2021/05/07 10:38:32;;;;;;;2.45;1.48;;;11.00;58.30;;;;;;5067108;28;20072;-86
2021/05/07 10:41:08;;;;;;;2.70;1.02;;;11.30;55.40;;;;;;5066974;28;20076;-86
2021/05/07 10:43:41;;;;;;;2.35;1.20;;;11.30;53.70;;;;;;5082777;28;20055;-87
2021/05/07 10:46:07;;;;;;;2.05;1.20;;;11.10;56.10;;;;;;5083749;28;20047;-85
2021/05/07 10:48:33;;;;;;;1.73;1.30;;;10.90;54.40;;;;;;5095623;28;20048;-86
2021/05/07 10:51:12;;;;;;;1.40;1.10;;;10.80;57.90;;;;;;5081841;28;20049;-86
2021/05/07 10:53:38;;;;;;;1.30;1.10;;;10.80;57.80;;;;;;5068101;28;20063;-87
2021/05/07 10:56:24;;;;;;;2.17;1.50;;;10.50;57.90;;;;;;5082993;28;20052;-86
2021/05/07 10:58:52;;;;;;;2.00;1.30;;;10.30;57.80;;;;;;5078544;28;20056;-86
2021/05/07 11:01:27;;;;;;;2.78;1.30;;;10.50;59.00;;;;;;5059332;28;20043;-87
2021/05/07 11:04:10;;;;;;;2.10;1.25;;;11.00;58.60;;;;;;5056755;28;20404;-88
2021/05/07 11:06:42;;;;;;;1.05;0.95;;;11.20;56.70;;;;;;5048567;28;20091;-86
2021/05/07 11:09:22;;;;;;;2.13;1.30;;;11.10;57.80;;;;;;5060298;28;20407;-86
2021/05/07 11:11:53;;;;;;;1.35;0.98;;;11.10;59.20;;;;;;5081572;28;20172;-85
2021/05/07 11:14:23;;;;;;;1.95;1.33;;;11.00;58.60;;;;;;5061202;28;20044;-89
2021/05/07 11:16:50;;;;;;;1.65;1.10;;;10.90;55.50;;;;;;5080230;28;20084;-84
2021/05/07 11:19:24;;;;;;;2.05;1.10;;;10.90;56.40;;;;;;5088904;28;20079;-86
2021/05/07 11:21:52;;;;;;;2.30;1.00;;;10.90;56.30;;;;;;5083714;28;20059;-84
2021/05/07 11:24:23;;;;;;;1.38;1.20;;;10.80;53.70;;;;;;5083176;28;20036;-90
2021/05/07 11:26:49;;;;;;;3.75;1.75;;;10.70;54.90;;;;;;5086987;28;20054;-83
2021/05/07 11:29:25;;;;;;;3.42;1.45;;;10.80;56.00;;;;;;5086582;28;20052;-86
2021/05/07 11:31:51;;;;;;;3.25;1.42;;;10.80;56.90;;;;;;5087501;28;20052;-86
2021/05/07 11:34:25;;;;;;;2.55;1.50;;;10.70;57.10;;;;;;5085751;28;20066;-89
2021/05/07 11:37:01;;;;;;;1.85;1.50;;;10.80;55.30;;;;;;5065779;28;20136;-84
2021/05/07 11:39:27;;;;;;;2.28;1.60;;;11.00;56.90;;;;;;5097958;28;20052;-84
2021/05/07 11:41:53;;;;;;;2.00;1.13;;;11.30;58.40;;;;;;5074560;28;20060;-87
2021/05/07 11:44:19;;;;;;;4.82;1.95;;;11.50;55.60;;;;;;5085268;28;20052;-90
2021/05/07 11:47:06;;;;;;;1.98;1.40;;;11.50;57.40;;;;;;5100592;28;20105;-85
2021/05/07 11:49:38;;;;;;;2.40;1.58;;;11.60;57.30;;;;;;5080608;28;20044;-86
2021/05/07 11:52:05;;;;;;;4.18;1.83;;;11.50;57.20;;;;;;5067621;28;20131;-84
2021/05/07 11:54:45;;;;;;;1.85;1.40;;;11.40;57.90;;;;;;5065120;28;20052;-85
2021/05/07 11:57:13;;;;;;;3.67;1.60;;;11.30;58.00;;;;;;5069814;28;20045;-85
2021/05/07 11:59:49;;;;;;;3.65;2.00;;;11.10;58.50;;;;;;5070961;28;20124;-85
2021/05/07 12:02:28;;;;;;;4.07;1.40;;;11.10;58.80;;;;;;5054582;28;20049;-86
2021/05/07 12:04:55;;;;;;;2.85;2.00;;;11.10;60.00;;;;;;5069327;28;20048;-86
2021/05/07 12:07:24;;;;;;;2.35;1.80;;;11.40;63.30;;;;;;5100970;28;20059;-90
2021/05/07 12:09:51;;;;;;;4.47;2.35;;;11.40;61.70;;;;;;5086975;28;20055;-86
2021/05/07 12:12:16;;;;;;;4.43;2.17;;;11.30;64.00;;;;;;5082397;28;20040;-86
2021/05/07 12:14:48;;;;;;;3.10;2.38;;;11.20;64.50;;;;;;5078895;28;20305;-84
2021/05/07 12:17:15;;;;;;;6.43;2.30;;;11.40;65.90;;;;;;5086920;28;20056;-85
2021/05/07 12:19:41;;;;;;;4.20;2.45;;;11.80;64.70;;;;;;5083194;28;20560;-85
2021/05/07 12:22:06;;;;;;;4.15;2.10;;;12.00;63.60;;;;;;5086062;28;20502;-84
2021/05/07 12:24:33;;;;;;;4.07;2.05;;;12.20;60.30;;;;;;5081894;28;20051;-83
2021/05/07 12:26:59;;;;;;;2.97;1.80;;;12.30;59.40;;;;;;5085047;28;20043;-84
2021/05/07 12:29:35;;;;;;;3.00;1.90;;;12.50;57.40;;;;;;5083333;28;20052;-84
2021/05/07 12:32:03;;;;;;;3.13;1.23;;;12.70;57.40;;;;;;5067656;28;20049;-83
2021/05/07 12:34:29;;;;;;;2.90;1.63;;;12.80;55.10;;;;;;5080639;28;20056;-84
2021/05/07 12:37:03;;;;;;;3.67;1.50;;;12.30;57.00;;;;;;5080456;28;20312;-84
2021/05/07 12:39:31;;;;;;;1.67;1.10;;;12.00;57.70;;;;;;5084681;27;20052;-85
2021/05/07 12:41:59;;;;;;;3.97;1.60;;;12.00;55.80;;;;;;5087183;28;20052;-85
2021/05/07 12:44:26;;;;;;;3.00;1.70;;;11.80;56.90;;;;;;5073985;28;20147;-86
2021/05/07 12:46:51;;;;;;;2.75;1.70;;;11.50;55.70;;;;;;5074843;28;20052;-84
2021/05/07 12:49:18;;;;;;;2.15;1.52;;;11.70;57.40;;;;;;5102451;28;20036;-85
2021/05/07 12:51:44;;;;;;;1.13;1.00;;;12.00;55.20;;;;;;5081879;28;20065;-85
2021/05/07 12:54:10;;;;;;;1.35;1.02;;;12.20;51.80;;;;;;5065980;28;20053;-85
2021/05/07 12:56:40;;;;;;;1.40;1.00;;;12.10;47.80;;;;;;5070845;28;20041;-85
2021/05/07 12:59:07;;;;;;;2.08;1.00;;;12.20;49.80;;;;;;5087338;28;20040;-85
2021/05/07 13:01:32;;;;;;;1.58;1.10;;;12.30;52.00;;;;;;5082752;28;20048;-85